createdAt,value
2023-04-30T00:00:18.914Z,101753.94
2023-04-30T00:02:46.918Z,101757.06
2023-04-30T00:05:14.922Z,101752.66
2023-04-30T00:07:44.342Z,101756.13
2023-04-30T00:10:12.300Z,101752.97
2023-04-30T00:12:40.262Z,101749.56
2023-04-30T00:15:08.907Z,101755.84
2023-04-30T00:17:37.011Z,101756.09
2023-04-30T00:20:05.766Z,101750.22
2023-04-30T00:22:34.415Z,101750.31
2023-04-30T00:25:03.672Z,101755.88
2023-04-30T00:27:32.352Z,101761.31
2023-04-30T00:30:00.276Z,101766.72
2023-04-30T00:32:28.173Z,101758.81
2023-04-30T00:34:56.309Z,101759.78
2023-04-30T00:37:24.157Z,101762.28
2023-04-30T00:39:52.457Z,101776.44
2023-04-30T00:42:22.211Z,101778.09
2023-04-30T00:44:50.112Z,101775.81
2023-04-30T00:47:18.042Z,101785.31
2023-04-30T00:49:46.230Z,101784.03
2023-04-30T00:52:14.514Z,101790.38
2023-04-30T00:54:43.003Z,101802.09
2023-04-30T00:57:13.834Z,101802.72
2023-04-30T00:59:43.256Z,101813.75
2023-04-30T01:02:11.405Z,101815.81
2023-04-30T01:04:39.751Z,101826.34
2023-04-30T01:07:08.096Z,101819.03
2023-04-30T01:09:36.441Z,101829.03
2023-04-30T01:12:14.873Z,101829.19
2023-04-30T01:14:58.190Z,101823.38
2023-04-30T01:17:33.363Z,101828.72
2023-04-30T01:20:02.941Z,101846.44
2023-04-30T01:22:42.188Z,101832.69
2023-04-30T01:25:26.621Z,101845.00
2023-04-30T01:28:06.619Z,101836.75
2023-04-30T01:30:36.470Z,101842.19
2023-04-30T01:33:04.797Z,101849.13
2023-04-30T01:35:59.188Z,101840.78
2023-04-30T01:38:40.650Z,101862.66
2023-04-30T01:41:19.702Z,101845.63
2023-04-30T01:43:57.079Z,101855.00
2023-04-30T01:46:29.232Z,101846.38
2023-04-30T01:49:10.894Z,101855.19
2023-04-30T01:51:42.687Z,101855.19
2023-04-30T01:54:18.151Z,101858.47
2023-04-30T01:56:54.445Z,101874.47
2023-04-30T01:59:24.731Z,101873.78
2023-04-30T02:01:52.791Z,101880.16
2023-04-30T02:04:20.859Z,101873.94
2023-04-30T02:06:48.777Z,101877.53
2023-04-30T02:09:16.646Z,101887.72
2023-04-30T02:11:44.510Z,101896.06
2023-04-30T02:14:12.432Z,101893.84
2023-04-30T02:16:42.006Z,101892.66
2023-04-30T02:19:10.161Z,101894.28
2023-04-30T02:21:39.655Z,101895.38
2023-04-30T02:24:08.132Z,101903.06
2023-04-30T02:26:36.020Z,101897.63
2023-04-30T02:29:03.900Z,101902.00
2023-04-30T02:31:31.810Z,101905.88
2023-04-30T02:34:01.060Z,101908.94
2023-04-30T02:36:29.120Z,101908.75
2023-04-30T02:38:56.971Z,101911.63
2023-04-30T02:41:24.802Z,101911.16
2023-04-30T02:43:52.851Z,101905.56
2023-04-30T02:46:20.983Z,101910.38
2023-04-30T02:48:48.854Z,101917.13
2023-04-30T02:51:18.147Z,101919.16
2023-04-30T02:53:46.024Z,101910.06
2023-04-30T02:56:13.936Z,101917.63
2023-04-30T02:58:42.019Z,101915.09
2023-04-30T03:01:09.984Z,101920.28
2023-04-30T03:03:37.956Z,101933.78
2023-04-30T03:06:06.636Z,101929.16
2023-04-30T03:08:35.956Z,101934.84
2023-04-30T03:11:03.872Z,101938.97
2023-04-30T03:13:31.767Z,101940.06
2023-04-30T03:16:00.460Z,101935.59
2023-04-30T03:18:29.131Z,101941.66
2023-04-30T03:20:57.268Z,101945.81
2023-04-30T03:23:25.412Z,101953.50
2023-04-30T03:25:54.935Z,101943.13
2023-04-30T03:28:23.262Z,101955.91
2023-04-30T03:30:51.390Z,101950.19
2023-04-30T03:33:19.290Z,101944.53
2023-04-30T03:35:47.534Z,101948.84
2023-04-30T03:38:15.443Z,101949.47
2023-04-30T03:40:43.376Z,101948.78
2023-04-30T03:43:13.283Z,101950.72
2023-04-30T03:45:41.137Z,101957.38
2023-04-30T03:48:09.027Z,101963.72
2023-04-30T03:50:36.928Z,101962.47
2023-04-30T03:53:04.840Z,101970.66
2023-04-30T03:55:34.247Z,101967.19
2023-04-30T03:58:02.412Z,101972.97
2023-04-30T04:00:32.186Z,101971.97
2023-04-30T04:03:00.764Z,101980.84
2023-04-30T04:05:29.851Z,101983.25
2023-04-30T04:07:57.758Z,101988.22
2023-04-30T04:10:25.734Z,101996.97
2023-04-30T04:12:53.612Z,101996.91
2023-04-30T04:15:21.674Z,101995.75
2023-04-30T04:17:52.338Z,101997.84
2023-04-30T04:20:20.417Z,101993.59
2023-04-30T04:22:48.299Z,102001.22
2023-04-30T04:25:18.131Z,102007.44
2023-04-30T04:27:46.252Z,102010.09
2023-04-30T04:30:14.797Z,102002.50
2023-04-30T04:32:48.065Z,102004.38
2023-04-30T04:35:17.623Z,102013.25
2023-04-30T04:37:46.044Z,102015.34
2023-04-30T04:40:14.267Z,102010.88
2023-04-30T04:42:42.265Z,102020.97
2023-04-30T04:45:11.200Z,102016.22
2023-04-30T04:47:40.018Z,102021.63
2023-04-30T04:50:09.013Z,102024.25
2023-04-30T04:52:39.096Z,102029.09
2023-04-30T04:55:07.895Z,102032.78
2023-04-30T04:57:37.367Z,102039.72
2023-04-30T05:00:08.035Z,102046.13
2023-04-30T05:02:36.196Z,102043.28
2023-04-30T05:05:04.254Z,102045.16
2023-04-30T05:07:32.131Z,102052.22
2023-04-30T05:10:01.617Z,102046.59
2023-04-30T05:12:29.459Z,102055.13
2023-04-30T05:14:57.343Z,102060.44
2023-04-30T05:17:25.325Z,102068.28
2023-04-30T05:19:54.312Z,102063.31
2023-04-30T05:22:22.519Z,102064.75
2023-04-30T05:24:52.985Z,102075.06
2023-04-30T05:27:22.312Z,102074.91
2023-04-30T05:29:50.186Z,102068.13
2023-04-30T05:32:18.136Z,102067.88
2023-04-30T05:34:45.994Z,102077.09
2023-04-30T05:37:14.542Z,102056.75
2023-04-30T05:39:42.484Z,102054.59
2023-04-30T05:42:10.333Z,102053.00
2023-04-30T05:44:39.579Z,102058.47
2023-04-30T05:47:07.551Z,102062.00
2023-04-30T05:49:36.263Z,102065.03
2023-04-30T05:52:04.647Z,102071.00
2023-04-30T05:54:33.125Z,102076.31
2023-04-30T05:57:01.062Z,102078.63
2023-04-30T05:59:28.938Z,102086.34
2023-04-30T06:01:58.256Z,102075.22
2023-04-30T06:04:26.230Z,102071.13
2023-04-30T06:06:54.105Z,102081.91
2023-04-30T06:09:21.976Z,102082.78
2023-04-30T06:11:50.534Z,102086.44
2023-04-30T06:14:18.516Z,102091.63
2023-04-30T06:16:47.039Z,102097.63
2023-04-30T06:19:16.303Z,102096.00
2023-04-30T06:21:44.273Z,102095.31
2023-04-30T06:24:12.168Z,102093.69
2023-04-30T06:26:40.057Z,102103.63
2023-04-30T06:29:07.915Z,102101.22
2023-04-30T06:31:35.812Z,102106.25
2023-04-30T06:34:03.749Z,102108.72
2023-04-30T06:36:32.998Z,102111.88
2023-04-30T06:39:01.046Z,102113.19
2023-04-30T06:41:29.002Z,102107.06
2023-04-30T06:43:56.906Z,102114.72
2023-04-30T06:46:24.855Z,102105.34
2023-04-30T06:48:52.818Z,102107.16
2023-04-30T06:51:20.939Z,102103.78
2023-04-30T06:53:50.135Z,102104.78
2023-04-30T06:56:18.059Z,102091.44
2023-04-30T06:58:46.509Z,102093.13
2023-04-30T07:01:14.392Z,102095.16
2023-04-30T07:03:42.715Z,102093.03
2023-04-30T07:06:10.990Z,102086.59
2023-04-30T07:08:41.110Z,102092.06
2023-04-30T07:11:10.448Z,102091.59
2023-04-30T07:13:38.501Z,102090.34
2023-04-30T07:16:09.097Z,102079.66
2023-04-30T07:18:37.844Z,102087.50
2023-04-30T07:21:05.842Z,102107.09
2023-04-30T07:23:33.694Z,102105.44
2023-04-30T07:26:01.679Z,102104.00
2023-04-30T07:28:30.892Z,102104.72
2023-04-30T07:30:58.837Z,102089.25
2023-04-30T07:33:26.867Z,102092.50
2023-04-30T07:35:56.630Z,102094.72
2023-04-30T07:38:24.575Z,102091.31
2023-04-30T07:40:52.448Z,102089.59
2023-04-30T07:43:20.549Z,102091.53
2023-04-30T07:45:50.829Z,102094.38
2023-04-30T07:48:18.709Z,102103.63
2023-04-30T07:50:50.569Z,102103.66
2023-04-30T07:53:19.287Z,102108.75
2023-04-30T07:55:47.646Z,102116.22
2023-04-30T07:58:15.560Z,102100.72
2023-04-30T08:00:43.475Z,102102.34
2023-04-30T08:03:13.287Z,102096.31
2023-04-30T08:05:41.638Z,102106.09
2023-04-30T08:08:09.859Z,102097.69
2023-04-30T08:10:37.773Z,102102.13
2023-04-30T08:13:05.843Z,102111.84
2023-04-30T08:15:35.169Z,102101.88
2023-04-30T08:18:03.892Z,102096.50
2023-04-30T08:20:33.244Z,102105.34
2023-04-30T08:23:01.324Z,102102.00
2023-04-30T08:25:29.200Z,102108.81
2023-04-30T08:27:57.118Z,102095.56
2023-04-30T08:30:25.788Z,102114.00
2023-04-30T08:32:55.369Z,102101.69
2023-04-30T08:35:25.508Z,102093.47
2023-04-30T08:37:54.783Z,102105.88
2023-04-30T08:40:29.047Z,102104.28
2023-04-30T08:43:08.381Z,102105.34
2023-04-30T08:45:37.155Z,102091.94
2023-04-30T08:48:06.137Z,102093.78
2023-04-30T08:50:35.092Z,102092.34
2023-04-30T08:53:04.418Z,102093.69
2023-04-30T08:55:35.590Z,102107.41
2023-04-30T08:58:05.485Z,102088.63
2023-04-30T09:00:33.903Z,102089.63
2023-04-30T09:03:02.697Z,102083.53
2023-04-30T09:05:31.066Z,102081.03
2023-04-30T09:08:03.660Z,102080.94
2023-04-30T09:10:35.038Z,102096.88
2023-04-30T09:13:04.484Z,102103.91
2023-04-30T09:15:34.161Z,102094.47
2023-04-30T09:18:14.460Z,102101.97
2023-04-30T09:20:56.522Z,102099.09
2023-04-30T09:23:25.589Z,102091.53
2023-04-30T09:25:54.945Z,102101.81
2023-04-30T09:28:25.519Z,102100.94
2023-04-30T09:30:54.013Z,102098.28
2023-04-30T09:33:21.906Z,102098.47
2023-04-30T09:35:49.968Z,102097.56
2023-04-30T09:38:35.754Z,102100.66
2023-04-30T09:41:05.222Z,102117.19
2023-04-30T09:43:33.504Z,102097.97
2023-04-30T09:46:01.447Z,102101.75
2023-04-30T09:48:29.616Z,102106.22
2023-04-30T09:50:57.830Z,102105.47
2023-04-30T09:53:25.916Z,102093.66
2023-04-30T09:55:54.551Z,102097.03
2023-04-30T09:58:29.045Z,102106.56
2023-04-30T10:01:00.248Z,102106.19
2023-04-30T10:03:28.945Z,102089.22
2023-04-30T10:05:57.063Z,102098.69
2023-04-30T10:08:29.069Z,102084.00
2023-04-30T10:11:01.123Z,102084.97
2023-04-30T10:13:33.531Z,102090.38
2023-04-30T10:16:08.822Z,102093.13
2023-04-30T10:18:40.694Z,102085.72
2023-04-30T10:21:14.191Z,102068.88
2023-04-30T10:23:43.759Z,102085.13
2023-04-30T10:26:12.412Z,102078.72
2023-04-30T10:28:41.970Z,102074.31
2023-04-30T10:31:11.519Z,102091.41
2023-04-30T10:33:50.706Z,102077.94
2023-04-30T10:36:27.207Z,102074.16
2023-04-30T10:38:55.720Z,102070.50
2023-04-30T10:41:23.599Z,102078.94
2023-04-30T10:43:56.072Z,102060.72
2023-04-30T10:46:24.807Z,102067.16
2023-04-30T10:48:54.921Z,102067.50
2023-04-30T10:51:23.296Z,102064.00
2023-04-30T10:53:52.954Z,102065.72
2023-04-30T10:56:34.749Z,102077.75
2023-04-30T10:59:04.005Z,102061.97
2023-04-30T11:01:32.638Z,102065.84
2023-04-30T11:04:08.184Z,102063.41
2023-04-30T11:06:57.124Z,102050.31
2023-04-30T11:09:38.282Z,102052.50
2023-04-30T11:12:12.309Z,102047.56
2023-04-30T11:14:45.980Z,102049.13
2023-04-30T11:17:15.658Z,102059.94
2023-04-30T11:19:48.300Z,102042.28
2023-04-30T11:22:25.707Z,102040.81
2023-04-30T11:24:55.869Z,102057.88
2023-04-30T11:27:25.739Z,102048.53
2023-04-30T11:29:56.262Z,102058.31
2023-04-30T11:32:26.895Z,102053.44
2023-04-30T11:34:56.023Z,102055.00
2023-04-30T11:37:32.563Z,102050.72
2023-04-30T11:40:03.664Z,102050.56
2023-04-30T11:42:34.714Z,102046.03
2023-04-30T11:45:09.406Z,102035.69
2023-04-30T11:47:42.007Z,102036.63
2023-04-30T11:50:11.844Z,102037.00
2023-04-30T11:52:40.525Z,102036.88
2023-04-30T11:55:13.770Z,102043.16
2023-04-30T11:57:41.939Z,102040.66
2023-04-30T12:00:14.685Z,102030.03
2023-04-30T12:02:44.676Z,102032.03
2023-04-30T12:05:17.409Z,102026.56
2023-04-30T12:07:49.538Z,102027.31
2023-04-30T12:10:19.759Z,102026.34
2023-04-30T12:12:49.296Z,102031.97
2023-04-30T12:15:23.242Z,102023.19
2023-04-30T12:17:51.192Z,102027.16
2023-04-30T12:20:19.261Z,102033.03
2023-04-30T12:22:47.392Z,102032.94
2023-04-30T12:25:17.784Z,102027.22
2023-04-30T12:27:48.365Z,102023.84
2023-04-30T12:30:16.916Z,102023.84
2023-04-30T12:32:47.245Z,102016.63
2023-04-30T12:35:16.889Z,102015.75
2023-04-30T12:37:46.031Z,102022.88
2023-04-30T12:40:15.480Z,102016.75
2023-04-30T12:42:44.084Z,102020.84
2023-04-30T12:45:12.779Z,102016.75
2023-04-30T12:47:41.962Z,102009.56
2023-04-30T12:50:13.403Z,102018.34
2023-04-30T12:52:42.806Z,102003.50
2023-04-30T12:55:19.583Z,102007.09
2023-04-30T12:58:06.267Z,101999.09
2023-04-30T13:00:48.652Z,102009.06
2023-04-30T13:03:17.950Z,102001.16
2023-04-30T13:05:50.940Z,102002.22
2023-04-30T13:08:20.676Z,101993.53
2023-04-30T13:10:49.512Z,102004.56
2023-04-30T13:13:20.259Z,101993.78
2023-04-30T13:15:48.549Z,101992.66
2023-04-30T13:18:16.622Z,101992.19
2023-04-30T13:20:45.530Z,101987.38
2023-04-30T13:23:15.091Z,101988.94
2023-04-30T13:25:43.642Z,101999.38
2023-04-30T13:28:11.553Z,101984.66
2023-04-30T13:30:40.417Z,101991.66
2023-04-30T13:33:08.331Z,101986.66
2023-04-30T13:35:36.293Z,101982.09
2023-04-30T13:38:04.166Z,101989.66
2023-04-30T13:40:33.525Z,101988.38
2023-04-30T13:43:01.374Z,101979.63
2023-04-30T13:45:30.225Z,101975.19
2023-04-30T13:47:58.213Z,101971.94
2023-04-30T13:50:26.365Z,101967.63
2023-04-30T13:52:54.264Z,101966.94
2023-04-30T13:55:22.232Z,101967.69
2023-04-30T13:57:51.504Z,101958.00
2023-04-30T14:00:19.681Z,101954.13
2023-04-30T14:02:47.584Z,101967.25
2023-04-30T14:05:15.752Z,101949.00
2023-04-30T14:07:44.469Z,101955.41
2023-04-30T14:10:12.851Z,101955.22
2023-04-30T14:12:40.672Z,101950.28
2023-04-30T14:15:10.634Z,101942.56
2023-04-30T14:17:38.633Z,101936.72
2023-04-30T14:20:08.085Z,101942.03
2023-04-30T14:22:38.583Z,101936.72
2023-04-30T14:25:07.554Z,101940.09
2023-04-30T14:27:35.388Z,101942.72
2023-04-30T14:30:04.076Z,101934.72
2023-04-30T14:32:33.392Z,101931.03
2023-04-30T14:35:01.316Z,101941.28
2023-04-30T14:37:29.549Z,101923.84
2023-04-30T14:39:58.757Z,101919.47
2023-04-30T14:42:26.883Z,101920.91
2023-04-30T14:44:54.760Z,101918.75
2023-04-30T14:47:22.835Z,101913.59
2023-04-30T14:49:53.636Z,101912.44
2023-04-30T14:52:22.389Z,101913.91
2023-04-30T14:54:50.266Z,101915.31
2023-04-30T14:57:18.751Z,101919.69
2023-04-30T14:59:46.701Z,101917.03
2023-04-30T15:02:14.800Z,101915.31
2023-04-30T15:04:46.077Z,101920.88
2023-04-30T15:07:15.429Z,101908.44
2023-04-30T15:09:44.727Z,101914.38
2023-04-30T15:12:12.633Z,101913.16
2023-04-30T15:14:41.317Z,101911.22
2023-04-30T15:17:09.469Z,101910.16
2023-04-30T15:19:37.403Z,101916.19
2023-04-30T15:22:05.311Z,101910.44
2023-04-30T15:24:34.577Z,101908.44
2023-04-30T15:27:04.253Z,101902.19
2023-04-30T15:29:32.217Z,101906.22
2023-04-30T15:32:00.479Z,101902.56
2023-04-30T15:34:28.398Z,101909.88
2023-04-30T15:36:58.871Z,101901.66
2023-04-30T15:39:26.946Z,101908.19
2023-04-30T15:41:56.436Z,101907.19
2023-04-30T15:44:24.454Z,101905.88
2023-04-30T15:46:52.588Z,101904.63
2023-04-30T15:49:21.215Z,101907.47
2023-04-30T15:51:49.066Z,101906.47
2023-04-30T15:54:17.963Z,101912.97
2023-04-30T15:56:45.976Z,101912.16
2023-04-30T15:59:17.750Z,101895.91
2023-04-30T16:01:47.496Z,101897.03
2023-04-30T16:04:15.618Z,101904.75
2023-04-30T16:06:43.676Z,101896.75
2023-04-30T16:09:12.427Z,101902.03
2023-04-30T16:11:40.634Z,101894.63
2023-04-30T16:14:08.586Z,101894.56
2023-04-30T16:16:37.911Z,101906.66
2023-04-30T16:19:07.636Z,101897.41
2023-04-30T16:21:38.397Z,101898.84
2023-04-30T16:24:06.528Z,101890.81
2023-04-30T16:26:35.172Z,101893.94
2023-04-30T16:29:04.276Z,101888.84
2023-04-30T16:31:32.312Z,101892.31
2023-04-30T16:34:01.586Z,101893.25
2023-04-30T16:36:29.447Z,101887.44
2023-04-30T16:38:57.292Z,101887.16
2023-04-30T16:41:25.870Z,101888.41
2023-04-30T16:43:53.721Z,101894.66
2023-04-30T16:46:21.636Z,101886.00
2023-04-30T16:48:49.825Z,101885.28
2023-04-30T16:51:19.072Z,101887.97
2023-04-30T16:53:46.980Z,101886.06
2023-04-30T16:56:15.013Z,101882.91
2023-04-30T16:58:42.960Z,101875.78
2023-04-30T17:01:10.964Z,101886.25
2023-04-30T17:03:38.963Z,101874.22
2023-04-30T17:06:07.269Z,101873.63
2023-04-30T17:08:37.298Z,101882.16
2023-04-30T17:11:06.320Z,101871.69
2023-04-30T17:13:34.246Z,101874.34
2023-04-30T17:16:02.391Z,101875.59
2023-04-30T17:18:30.373Z,101876.44
2023-04-30T17:20:58.293Z,101877.63
2023-04-30T17:23:26.519Z,101880.00
2023-04-30T17:25:56.070Z,101887.34
2023-04-30T17:28:23.962Z,101878.38
2023-04-30T17:30:52.537Z,101878.63
2023-04-30T17:33:20.443Z,101876.56
2023-04-30T17:35:48.309Z,101878.63
2023-04-30T17:38:16.214Z,101873.31
2023-04-30T17:40:44.473Z,101882.03
2023-04-30T17:43:13.915Z,101876.56
2023-04-30T17:45:41.858Z,101877.16
2023-04-30T17:48:09.738Z,101880.25
2023-04-30T17:50:37.717Z,101878.09
2023-04-30T17:53:05.627Z,101877.28
2023-04-30T17:55:33.595Z,101880.66
2023-04-30T17:58:01.676Z,101885.81
2023-04-30T18:00:31.692Z,101884.63
2023-04-30T18:02:59.666Z,101874.66
2023-04-30T18:05:27.774Z,101877.81
2023-04-30T18:07:55.670Z,101879.50
2023-04-30T18:10:23.543Z,101882.38
2023-04-30T18:12:51.644Z,101881.84
2023-04-30T18:15:19.572Z,101884.22
2023-04-30T18:17:48.813Z,101884.00
2023-04-30T18:20:16.832Z,101878.56
2023-04-30T18:22:44.790Z,101881.66
2023-04-30T18:25:14.098Z,101886.22
2023-04-30T18:27:42.029Z,101880.31
2023-04-30T18:30:11.531Z,101887.22
2023-04-30T18:32:39.952Z,101886.09
2023-04-30T18:35:10.082Z,101892.84
2023-04-30T18:37:37.956Z,101899.00
2023-04-30T18:40:06.935Z,101888.78
2023-04-30T18:42:34.795Z,101889.44
2023-04-30T18:45:02.971Z,101890.28
2023-04-30T18:47:32.988Z,101895.19
2023-04-30T18:50:00.932Z,101898.75
2023-04-30T18:52:30.160Z,101902.16
2023-04-30T18:54:58.037Z,101902.66
2023-04-30T18:57:25.966Z,101907.31
2023-04-30T18:59:54.792Z,101907.69
2023-04-30T19:02:22.969Z,101902.78
2023-04-30T19:04:51.230Z,101906.19
2023-04-30T19:07:19.220Z,101897.00
2023-04-30T19:09:50.595Z,101913.53
2023-04-30T19:12:18.501Z,101916.59
2023-04-30T19:14:47.223Z,101912.16
2023-04-30T19:17:15.260Z,101916.69
2023-04-30T19:19:44.213Z,101917.00
2023-04-30T19:22:12.389Z,101921.78
2023-04-30T19:24:40.282Z,101924.59
2023-04-30T19:27:10.918Z,101924.50
2023-04-30T19:29:39.483Z,101928.47
2023-04-30T19:32:07.813Z,101917.59
2023-04-30T19:34:35.911Z,101922.22
2023-04-30T19:37:04.056Z,101915.63
2023-04-30T19:39:33.945Z,101922.44
2023-04-30T19:42:01.821Z,101923.13
2023-04-30T19:44:31.074Z,101924.56
2023-04-30T19:46:59.100Z,101926.53
2023-04-30T19:49:27.183Z,101928.34
2023-04-30T19:51:55.537Z,101934.69
2023-04-30T19:54:23.480Z,101932.13
2023-04-30T19:56:52.735Z,101937.72
2023-04-30T19:59:20.862Z,101934.31
2023-04-30T20:01:52.529Z,101938.63
2023-04-30T20:04:20.494Z,101936.78
2023-04-30T20:06:51.794Z,101936.56
2023-04-30T20:09:19.816Z,101938.06
2023-04-30T20:11:49.752Z,101940.09
2023-04-30T20:14:17.607Z,101939.59
2023-04-30T20:16:46.021Z,101940.00
2023-04-30T20:19:15.531Z,101942.78
2023-04-30T20:21:43.731Z,101947.28
2023-04-30T20:24:11.832Z,101937.09
2023-04-30T20:26:40.298Z,101940.75
2023-04-30T20:29:08.137Z,101941.59
2023-04-30T20:31:36.994Z,101933.44
2023-04-30T20:34:04.985Z,101947.28
2023-04-30T20:36:34.377Z,101941.06
2023-04-30T20:39:02.314Z,101947.09
2023-04-30T20:41:30.407Z,101945.34
2023-04-30T20:43:59.986Z,101940.19
2023-04-30T20:46:28.415Z,101943.53
2023-04-30T20:49:02.505Z,101943.13
2023-04-30T20:51:30.503Z,101944.63
2023-04-30T20:53:59.821Z,101942.38
2023-04-30T20:56:27.708Z,101944.00
2023-04-30T20:58:55.874Z,101942.13
2023-04-30T21:01:23.889Z,101939.78
2023-04-30T21:03:51.788Z,101942.16
2023-04-30T21:06:19.897Z,101943.88
2023-04-30T21:08:48.688Z,101937.84
2023-04-30T21:11:19.023Z,101938.59
2023-04-30T21:16:15.065Z,101934.50
2023-04-30T21:18:44.360Z,101940.44
2023-04-30T21:21:12.202Z,101940.63
2023-04-30T21:23:40.098Z,101936.88
2023-04-30T21:26:08.193Z,101943.00
2023-04-30T21:28:37.435Z,101950.72
2023-04-30T21:31:06.671Z,101947.16
2023-04-30T21:33:34.710Z,101951.72
2023-04-30T21:36:03.004Z,101943.97
2023-04-30T21:38:31.442Z,101942.31
2023-04-30T21:40:59.402Z,101943.41
2023-04-30T21:43:27.452Z,101953.53
2023-04-30T21:46:02.475Z,101944.91
2023-04-30T21:48:30.376Z,101942.09
2023-04-30T21:50:58.235Z,101935.09
2023-04-30T21:53:26.127Z,101932.94
2023-04-30T21:55:54.150Z,101936.59
2023-04-30T21:58:21.971Z,101943.34
2023-04-30T22:00:49.827Z,101941.81
2023-04-30T22:03:19.168Z,101948.47
2023-04-30T22:05:47.418Z,101941.63
2023-04-30T22:08:15.469Z,101935.44
2023-04-30T22:10:43.335Z,101939.84
2023-04-30T22:13:11.196Z,101945.84
2023-04-30T22:15:47.867Z,101944.44
2023-04-30T22:18:17.152Z,101947.63
2023-04-30T22:20:46.488Z,101946.69
2023-04-30T22:23:14.334Z,101939.38
2023-04-30T22:25:42.261Z,101935.97
2023-04-30T22:28:11.114Z,101935.16
2023-04-30T22:30:39.491Z,101941.53
2023-04-30T22:33:07.747Z,101937.22
2023-04-30T22:35:38.168Z,101939.53
2023-04-30T22:38:07.509Z,101948.44
2023-04-30T22:40:39.088Z,101944.56
2023-04-30T22:43:07.502Z,101926.81
2023-04-30T22:45:38.336Z,101929.75
2023-04-30T22:48:07.163Z,101926.75
2023-04-30T22:50:35.465Z,101923.44
2023-04-30T22:53:03.417Z,101922.19
2023-04-30T22:55:32.995Z,101935.97
2023-04-30T22:58:01.706Z,101927.94
2023-04-30T23:00:30.020Z,101921.56
2023-04-30T23:02:57.925Z,101921.78
2023-04-30T23:05:26.297Z,101922.16
2023-04-30T23:07:54.161Z,101909.53
2023-04-30T23:10:22.010Z,101922.16
2023-04-30T23:12:51.771Z,101919.31
2023-04-30T23:15:19.753Z,101918.88
2023-04-30T23:17:47.802Z,101907.66
2023-04-30T23:20:15.803Z,101909.13
2023-04-30T23:22:43.701Z,101911.69
2023-04-30T23:25:11.767Z,101911.16
2023-04-30T23:27:39.636Z,101911.97
2023-04-30T23:30:11.408Z,101902.69
2023-04-30T23:32:39.378Z,101902.22
2023-04-30T23:35:08.917Z,101896.75
2023-04-30T23:37:37.176Z,101902.72
2023-04-30T23:40:07.449Z,101895.38
2023-04-30T23:42:35.632Z,101895.66
2023-04-30T23:45:03.791Z,101897.09
2023-04-30T23:47:36.383Z,101902.56
2023-04-30T23:50:04.577Z,101894.03
2023-04-30T23:52:33.140Z,101897.59
2023-04-30T23:55:01.027Z,101891.78
2023-04-30T23:57:28.836Z,101896.28
2023-04-30T23:59:57.030Z,101901.63
